Time;durP1;ratioP1;P1;durP2;ratioP2;P2;SDS_P1;SDS_P2;PMS_P1;PMS_P2;Temp;Humidity;BMP_temperature;BMP_pressure;BME280_temperature;BME280_humidity;BME280_pressure;Samples;Min_cycle;Max_cycle;Signal;HPM_P1;HPM_P2
2022/10/25 00:01:18;;;;;;;7.70;3.10;;;;;;;17.59;71.47;101132.56;4894620;29;20028;-72
2022/10/25 00:03:44;;;;;;;10.82;3.20;;;;;;;17.65;71.17;101135.16;4884790;28;20052;-73
2022/10/25 00:06:10;;;;;;;8.75;2.70;;;;;;;17.82;70.50;101146.38;4886779;29;20408;-73
2022/10/25 00:08:36;;;;;;;10.13;3.08;;;;;;;17.67;71.13;101138.66;4878993;29;20051;-72
2022/10/25 00:11:01;;;;;;;9.52;3.40;;;;;;;17.63;71.37;101141.31;4882904;29;21025;-73
2022/10/25 00:13:27;;;;;;;12.00;3.10;;;;;;;17.65;71.46;101145.69;4884531;29;20457;-73
2022/10/25 00:15:52;;;;;;;7.93;2.50;;;;;;;17.73;70.77;101148.25;4886389;29;20054;-73
2022/10/25 00:18:17;;;;;;;8.88;2.85;;;;;;;17.78;70.57;101146.44;4881970;29;20090;-72
2022/10/25 00:20:45;;;;;;;10.80;2.65;;;;;;;17.84;70.12;101155.16;4876291;28;20524;-72
2022/10/25 00:23:11;;;;;;;9.93;2.40;;;;;;;17.67;70.80;101154.47;4882901;29;20032;-73
2022/10/25 00:25:37;;;;;;;9.82;2.65;;;;;;;17.63;71.19;101157.13;4881047;29;20035;-74
2022/10/25 00:28:02;;;;;;;7.85;2.25;;;;;;;17.82;70.71;101159.56;4884560;29;20032;-75
2022/10/25 00:30:27;;;;;;;10.25;2.47;;;;;;;17.70;71.17;101156.19;4885672;29;20040;-73
2022/10/25 00:32:53;;;;;;;9.93;2.33;;;;;;;17.42;72.25;101161.72;4880019;29;20051;-73
2022/10/25 00:35:18;;;;;;;8.95;2.10;;;;;;;17.79;70.71;101162.25;4885709;29;20039;-73
2022/10/25 00:37:44;;;;;;;6.93;1.83;;;;;;;17.79;70.50;101161.38;4886104;29;20471;-73
2022/10/25 00:40:10;;;;;;;6.97;1.92;;;;;;;17.61;71.04;101166.84;4882979;28;20059;-73
2022/10/25 00:42:35;;;;;;;10.77;1.90;;;;;;;17.32;72.04;101156.59;4878346;29;20178;-73
2022/10/25 00:45:10;;;;;;;9.43;2.08;;;;;;;17.65;71.34;101165.91;4879184;29;20059;-73
2022/10/25 00:47:55;;;;;;;11.85;2.10;;;;;;;17.64;71.11;101159.75;4881403;29;20590;-73
2022/10/25 00:50:33;;;;;;;12.27;2.20;;;;;;;17.59;71.35;101164.19;4880153;29;20504;-74
2022/10/25 00:53:23;;;;;;;14.63;2.13;;;;;;;17.45;72.28;101166.97;4886737;29;20459;-74
2022/10/25 00:55:57;;;;;;;11.07;2.25;;;;;;;17.60;71.48;101163.34;4883306;29;20707;-75
2022/10/25 00:58:26;;;;;;;8.55;2.20;;;;;;;17.76;70.95;101167.53;4886556;28;20270;-74
2022/10/25 01:00:52;;;;;;;9.38;1.90;;;;;;;17.71;70.96;101171.13;4885400;29;20040;-74
2022/10/25 01:03:20;;;;;;;8.70;1.95;;;;;;;17.62;70.87;101166.84;4895916;29;20129;-74
2022/10/25 01:05:47;;;;;;;9.50;2.00;;;;;;;17.57;71.35;101173.00;4883445;29;20040;-74
2022/10/25 01:08:13;;;;;;;10.45;2.00;;;;;;;17.59;71.21;101177.38;4880069;29;20278;-73
2022/10/25 01:10:38;;;;;;;12.13;2.00;;;;;;;17.37;71.56;101167.94;4876358;29;20379;-73
2022/10/25 01:13:04;;;;;;;13.00;1.70;;;;;;;17.45;71.48;101166.97;4880886;29;20408;-73
2022/10/25 01:15:54;;;;;;;11.07;1.95;;;;;;;17.41;71.89;101170.53;4880303;29;20059;-73
2022/10/25 01:18:42;;;;;;;15.23;2.22;;;;;;;17.44;71.42;101173.13;4881891;29;20094;-74
2022/10/25 01:21:35;;;;;;;14.43;2.05;;;;;;;17.30;72.11;101175.03;4881773;29;20059;-74
2022/10/25 01:24:27;;;;;;;10.43;2.03;;;;;;;17.29;72.11;101178.56;4880311;29;20082;-73
2022/10/25 01:27:01;;;;;;;12.15;2.13;;;;;;;17.34;72.06;101176.75;4875982;29;20055;-73
2022/10/25 01:29:52;;;;;;;9.63;1.90;;;;;;;17.28;71.92;101179.44;4883268;29;20051;-73
2022/10/25 01:32:42;;;;;;;9.73;1.90;;;;;;;17.41;71.53;101188.97;4883340;29;20054;-73
2022/10/25 01:35:29;;;;;;;9.45;1.85;;;;;;;17.42;71.72;101180.19;4885662;29;20058;-74
2022/10/25 01:37:59;;;;;;;11.45;2.25;;;;;;;17.38;72.12;101183.72;4882606;29;20039;-73
2022/10/25 01:40:49;;;;;;;10.70;2.13;;;;;;;17.38;71.93;101188.16;4879112;29;20166;-73
2022/10/25 01:43:33;;;;;;;8.32;2.00;;;;;;;17.42;71.34;101188.09;4883827;29;20054;-73
2022/10/25 01:46:22;;;;;;;14.50;2.05;;;;;;;17.34;71.58;101191.69;4895019;29;20135;-73
2022/10/25 01:48:56;;;;;;;13.40;2.47;;;;;;;17.23;72.19;101201.44;4879880;29;20202;-73
2022/10/25 01:51:25;;;;;;;11.50;2.50;;;;;;;17.40;71.72;101194.25;4876950;29;20103;-73
2022/10/25 01:53:51;;;;;;;13.40;2.50;;;;;;;17.44;71.93;101199.47;4882406;29;20103;-73
2022/10/25 01:56:38;;;;;;;11.77;2.42;;;;;;;17.35;72.50;101196.94;4887196;29;20536;-74
2022/10/25 01:59:15;;;;;;;9.63;2.08;;;;;;;17.25;72.89;101199.69;4878202;29;20131;-73
2022/10/25 02:01:49;;;;;;;12.50;2.40;;;;;;;17.22;72.87;101205.84;4884340;29;20043;-73
2022/10/25 02:04:38;;;;;;;12.07;2.47;;;;;;;17.44;72.37;101207.38;4879042;29;20051;-73
2022/10/25 02:07:09;;;;;;;15.70;2.60;;;;;;;17.51;72.34;101209.97;4885878;29;20036;-74
2022/10/25 02:09:53;;;;;;;13.77;2.42;;;;;;;17.54;72.56;101216.09;4886613;29;20063;-74
2022/10/25 02:12:28;;;;;;;9.68;2.45;;;;;;;17.63;72.28;101207.22;4893015;29;20138;-74
2022/10/25 02:15:12;;;;;;;12.07;2.20;;;;;;;17.66;72.39;101209.84;4886728;29;20400;-73
2022/10/25 02:17:50;;;;;;;15.02;2.40;;;;;;;17.63;72.38;101207.22;4892697;29;20959;-74
2022/10/25 02:20:20;;;;;;;13.68;2.50;;;;;;;17.48;73.49;101210.00;4909201;29;20118;-73
2022/10/25 02:22:47;;;;;;;13.55;2.30;;;;;;;17.58;73.01;101209.00;4888148;29;20201;-73
2022/10/25 02:25:13;;;;;;;13.63;2.40;;;;;;;17.84;71.70;101207.03;4885800;29;20042;-73
2022/10/25 02:27:40;;;;;;;15.57;2.47;;;;;;;17.62;72.71;101214.31;4872623;28;20763;-75
2022/10/25 02:30:06;;;;;;;14.90;2.42;;;;;;;17.42;74.07;101222.34;4882016;29;20406;-73
2022/10/25 02:32:32;;;;;;;11.50;2.15;;;;;;;17.55;73.62;101231.03;4869664;29;20152;-73
2022/10/25 02:34:57;;;;;;;15.75;2.15;;;;;;;17.45;73.74;101231.97;4881508;29;20119;-74
2022/10/25 02:37:22;;;;;;;13.15;2.35;;;;;;;17.62;72.41;101231.88;4879361;29;20519;-73
2022/10/25 02:39:50;;;;;;;8.93;2.00;;;;;;;17.60;72.12;101225.69;4876619;28;20055;-74
2022/10/25 02:42:15;;;;;;;12.35;2.20;;;;;;;17.47;72.74;101227.56;4883341;29;20036;-73
2022/10/25 02:44:41;;;;;;;14.55;2.65;;;;;;;17.40;73.42;101224.13;4874355;28;20882;-73
2022/10/25 02:47:06;;;;;;;16.08;2.75;;;;;;;17.31;74.13;101221.59;4881794;29;20091;-74
2022/10/25 02:49:31;;;;;;;15.10;2.65;;;;;;;17.37;73.91;101229.44;4881593;29;20514;-72
2022/10/25 02:51:57;;;;;;;14.65;2.67;;;;;;;17.40;74.26;101221.47;4879797;28;20048;-73
2022/10/25 02:54:23;;;;;;;14.10;2.45;;;;;;;17.51;73.90;101225.78;4887030;29;20035;-73
2022/10/25 02:56:51;;;;;;;15.82;2.45;;;;;;;17.56;73.40;101211.69;4885282;29;20596;-73
2022/10/25 02:59:18;;;;;;;18.05;2.42;;;;;;;17.47;73.77;101224.06;4882414;29;20039;-73
2022/10/25 03:01:44;;;;;;;13.05;2.25;;;;;;;17.40;73.81;101221.47;4884161;29;20699;-73
2022/10/25 03:04:09;;;;;;;19.00;2.50;;;;;;;17.37;73.50;101232.06;4880443;29;20062;-74
2022/10/25 03:06:35;;;;;;;16.90;2.47;;;;;;;17.37;74.19;101234.72;4886271;29;20108;-73
2022/10/25 03:09:00;;;;;;;17.88;2.25;;;;;;;17.50;73.50;101235.47;4885278;28;20048;-74
2022/10/25 03:11:26;;;;;;;15.27;2.42;;;;;;;17.35;74.13;101239.09;4892779;29;20449;-73
2022/10/25 03:13:51;;;;;;;15.95;2.33;;;;;;;17.01;74.98;101238.50;4889440;29;20032;-73
2022/10/25 03:16:16;;;;;;;12.82;2.40;;;;;;;17.25;73.89;101237.44;4891663;28;20446;-75
2022/10/25 03:18:42;;;;;;;11.95;2.10;;;;;;;17.36;73.05;101240.84;4896564;29;20274;-74
2022/10/25 03:21:07;;;;;;;17.08;2.45;;;;;;;17.25;73.47;101236.56;4891741;29;20032;-73
2022/10/25 03:23:33;;;;;;;16.02;2.28;;;;;;;17.22;73.39;101245.34;4896024;29;20032;-73
2022/10/25 03:26:00;;;;;;;13.70;2.22;;;;;;;17.21;73.82;101250.63;4903969;29;20598;-74
2022/10/25 03:28:27;;;;;;;12.88;2.15;;;;;;;17.28;73.33;101252.34;4896811;28;20076;-73
2022/10/25 03:30:53;;;;;;;17.73;2.25;;;;;;;17.28;72.73;101253.22;4900925;29;20039;-74
2022/10/25 03:33:18;;;;;;;19.77;2.40;;;;;;;17.07;74.06;101263.06;4896167;28;20879;-74
2022/10/25 03:35:44;;;;;;;17.88;2.38;;;;;;;17.17;73.37;101260.34;4890677;29;20547;-73
2022/10/25 03:38:10;;;;;;;21.13;2.33;;;;;;;17.10;73.79;101266.53;4885998;29;20039;-73
2022/10/25 03:40:35;;;;;;;14.95;2.10;;;;;;;17.03;74.34;101270.09;4876204;29;20048;-73
2022/10/25 03:43:01;;;;;;;23.15;2.67;;;;;;;16.93;74.76;101278.94;4883340;29;20137;-72
2022/10/25 03:45:26;;;;;;;15.55;2.45;;;;;;;17.14;74.00;101283.22;4884391;29;20063;-73
2022/10/25 03:47:51;;;;;;;15.95;2.10;;;;;;;17.16;74.32;101282.28;4885168;29;20077;-74
2022/10/25 03:50:17;;;;;;;10.40;1.95;;;;;;;17.30;73.72;101287.47;4882238;29;20036;-73
2022/10/25 03:52:42;;;;;;;14.02;1.90;;;;;;;17.31;73.56;101284.84;4879731;29;20127;-74
2022/10/25 03:55:08;;;;;;;15.45;2.03;;;;;;;17.09;74.39;101290.25;4885449;29;20577;-74
2022/10/25 03:57:34;;;;;;;15.90;2.33;;;;;;;17.14;74.42;101293.75;4885544;28;20056;-72
2022/10/25 04:00:00;;;;;;;13.18;2.30;;;;;;;17.26;73.73;101283.13;4884407;29;20032;-73
2022/10/25 04:02:26;;;;;;;15.93;2.20;;;;;;;17.13;74.14;101289.34;4876775;29;20048;-73
2022/10/25 04:04:52;;;;;;;16.30;2.13;;;;;;;17.21;73.69;101295.44;4883180;29;20035;-73
2022/10/25 04:07:17;;;;;;;14.15;2.38;;;;;;;17.10;73.74;101292.00;4883021;29;20032;-72
2022/10/25 04:09:43;;;;;;;16.85;2.50;;;;;;;17.03;74.10;101301.69;4887705;29;20389;-72
2022/10/25 04:12:08;;;;;;;18.17;2.40;;;;;;;17.11;74.16;101291.13;4879873;29;20498;-72
2022/10/25 04:14:33;;;;;;;14.10;2.35;;;;;;;17.18;73.44;101288.44;4888988;29;20621;-73
2022/10/25 04:16:59;;;;;;;14.00;2.75;;;;;;;17.10;73.37;101294.63;4888679;29;20414;-73
2022/10/25 04:19:24;;;;;;;13.45;2.40;;;;;;;17.11;74.09;101305.16;4881763;29;21973;-73
2022/10/25 04:21:49;;;;;;;15.73;2.40;;;;;;;17.17;73.60;101307.75;4879041;29;20060;-73
2022/10/25 04:24:15;;;;;;;15.02;2.58;;;;;;;17.12;73.94;101311.31;4887196;29;20095;-72
2022/10/25 04:26:40;;;;;;;13.60;2.28;;;;;;;17.17;73.98;101314.78;4892182;29;20209;-73
2022/10/25 04:29:06;;;;;;;17.25;3.10;;;;;;;17.23;73.80;101323.53;4881704;29;20030;-73
2022/10/25 04:31:32;;;;;;;16.17;2.60;;;;;;;17.25;73.75;101318.25;4879334;29;20147;-73
2022/10/25 04:33:57;;;;;;;11.05;2.47;;;;;;;17.19;74.32;101319.19;4879730;28;20052;-74
2022/10/25 04:36:27;;;;;;;16.42;2.60;;;;;;;17.12;74.13;101322.72;4883133;29;20070;-73
2022/10/25 04:38:53;;;;;;;17.25;2.55;;;;;;;16.99;74.14;101336.84;4885177;29;20044;-73
2022/10/25 04:41:19;;;;;;;17.75;2.55;;;;;;;17.09;73.60;101335.03;4886285;29;20058;-73
2022/10/25 04:43:46;;;;;;;11.25;2.42;;;;;;;17.15;73.39;101338.50;4884422;29;20040;-73
2022/10/25 04:46:12;;;;;;;14.20;2.70;;;;;;;17.14;73.93;101341.16;4876744;29;20055;-72
2022/10/25 04:48:39;;;;;;;13.70;2.50;;;;;;;17.17;73.83;101342.00;4879246;29;20032;-73
2022/10/25 04:51:05;;;;;;;14.73;2.70;;;;;;;17.26;73.95;101338.47;4876525;29;20048;-73
2022/10/25 04:53:31;;;;;;;16.50;2.90;;;;;;;17.34;73.77;101341.91;4879676;29;20039;-74
2022/10/25 04:56:02;;;;;;;17.20;2.90;;;;;;;17.26;73.87;101354.28;4882578;29;20092;-72
2022/10/25 04:58:28;;;;;;;17.02;2.97;;;;;;;17.28;73.71;101350.72;4877703;29;20054;-73
2022/10/25 05:01:03;;;;;;;17.75;3.15;;;;;;;17.21;73.80;101351.63;4884914;29;20032;-74
2022/10/25 05:03:29;;;;;;;16.02;3.35;;;;;;;17.30;73.72;101354.22;4879636;29;20294;-74
2022/10/25 05:06:04;;;;;;;16.63;3.33;;;;;;;17.35;73.70;101351.56;4883344;29;20495;-73
2022/10/25 05:08:29;;;;;;;14.25;3.03;;;;;;;17.21;73.39;101353.41;4880307;28;20523;-73
2022/10/25 05:10:54;;;;;;;15.27;3.40;;;;;;;17.28;73.41;101357.75;4888312;29;20166;-73
2022/10/25 05:13:20;;;;;;;13.13;3.15;;;;;;;17.35;73.41;101364.72;4882048;29;20119;-74
2022/10/25 05:15:56;;;;;;;17.67;3.38;;;;;;;17.26;73.95;101363.03;4881036;29;20102;-73
2022/10/25 05:18:22;;;;;;;18.65;3.65;;;;;;;17.20;74.00;101362.22;4880134;29;20115;-73
2022/10/25 05:20:52;;;;;;;18.48;3.38;;;;;;;17.02;74.27;101369.31;4879875;28;20500;-73
2022/10/25 05:23:17;;;;;;;17.90;3.03;;;;;;;17.28;73.58;101366.53;4880108;29;20111;-73
2022/10/25 05:25:43;;;;;;;15.25;2.97;;;;;;;17.20;73.69;101362.22;4888024;29;20038;-73
2022/10/25 05:28:09;;;;;;;14.38;2.88;;;;;;;17.15;73.64;101377.16;4877600;29;22599;-72
2022/10/25 05:30:34;;;;;;;12.27;2.70;;;;;;;17.19;73.32;101366.59;4879723;29;20048;-73
2022/10/25 05:32:59;;;;;;;12.20;2.70;;;;;;;17.29;72.71;101368.28;4882683;28;20040;-72
2022/10/25 05:35:24;;;;;;;12.82;3.20;;;;;;;17.13;73.58;101365.75;4883107;29;20111;-72
2022/10/25 05:37:50;;;;;;;11.27;2.83;;;;;;;17.13;73.17;101377.19;4883237;29;20032;-73
2022/10/25 05:40:15;;;;;;;15.18;3.35;;;;;;;16.98;73.70;101382.50;4887262;29;20063;-72
2022/10/25 05:42:40;;;;;;;10.98;3.30;;;;;;;17.09;73.44;101385.09;4896761;29;20779;-73
2022/10/25 05:45:06;;;;;;;13.60;2.90;;;;;;;17.06;73.71;101388.63;4877625;28;20052;-74
2022/10/25 05:47:31;;;;;;;13.27;3.03;;;;;;;16.78;73.84;101393.13;4881983;29;20028;-72
2022/10/25 05:49:57;;;;;;;16.55;3.90;;;;;;;16.66;74.68;101384.38;4882986;29;20330;-74
2022/10/25 05:52:22;;;;;;;16.42;3.97;;;;;;;16.77;74.16;101387.88;4876226;28;20055;-74
2022/10/25 05:54:48;;;;;;;12.38;4.07;;;;;;;16.74;73.76;101393.16;4880246;29;20191;-74
2022/10/25 05:57:13;;;;;;;10.63;3.88;;;;;;;16.89;72.73;101396.63;4865948;29;20144;-74
2022/10/25 05:59:38;;;;;;;12.00;4.00;;;;;;;16.74;72.90;101394.03;4883128;29;20069;-72
2022/10/25 06:02:04;;;;;;;17.25;4.05;;;;;;;16.84;72.27;101395.72;4881224;29;20036;-73
2022/10/25 06:04:29;;;;;;;19.88;4.15;;;;;;;16.59;73.48;101402.84;4869548;29;20048;-72
2022/10/25 06:06:54;;;;;;;16.38;3.75;;;;;;;16.40;74.59;101409.03;4873048;29;20105;-73
2022/10/25 06:09:20;;;;;;;10.60;3.60;;;;;;;16.68;73.32;101408.97;4880666;29;20056;-73
2022/10/25 06:11:45;;;;;;;13.23;4.13;;;;;;;16.45;73.96;101399.34;4890546;29;21949;-73
2022/10/25 06:14:11;;;;;;;19.05;4.10;;;;;;;16.48;73.79;101404.59;4880410;29;20028;-73
2022/10/25 06:16:37;;;;;;;15.68;4.53;;;;;;;16.58;73.54;101403.72;4879113;29;20043;-73
2022/10/25 06:19:02;;;;;;;13.45;4.68;;;;;;;16.34;74.48;101403.75;4892185;29;20036;-73
2022/10/25 06:21:28;;;;;;;15.32;4.20;;;;;;;16.52;73.77;101411.63;4878478;29;20076;-73
2022/10/25 06:23:54;;;;;;;17.25;4.93;;;;;;;16.31;74.94;101409.03;4891176;29;20489;-73
2022/10/25 06:26:25;;;;;;;17.25;4.78;;;;;;;16.49;74.38;101416.00;4887374;29;20024;-74
2022/10/25 06:28:54;;;;;;;16.38;5.80;;;;;;;16.35;75.02;101423.91;4882294;29;20032;-73
2022/10/25 06:31:20;;;;;;;16.70;5.80;;;;;;;16.39;74.74;101423.06;4875116;29;20035;-73
2022/10/25 06:33:45;;;;;;;14.70;5.40;;;;;;;16.45;74.13;101422.16;4870006;28;20150;-74
2022/10/25 06:36:15;;;;;;;19.80;5.40;;;;;;;16.52;73.98;101429.16;4878278;29;20028;-73
2022/10/25 06:38:41;;;;;;;15.65;5.55;;;;;;;16.62;73.38;101434.44;4883174;29;20435;-71
2022/10/25 06:41:10;;;;;;;18.42;5.28;;;;;;;16.50;73.98;101439.69;4884719;29;20139;-72
2022/10/25 06:43:37;;;;;;;13.85;4.90;;;;;;;16.52;74.10;101439.69;4882499;28;20051;-74
2022/10/25 06:46:31;;;;;;;15.60;4.93;;;;;;;16.56;73.57;101444.06;4889012;29;20171;-73
2022/10/25 06:48:58;;;;;;;17.27;5.22;;;;;;;16.63;73.73;101452.00;4885368;29;20041;-74
2022/10/25 06:51:25;;;;;;;16.60;4.72;;;;;;;16.51;74.12;101449.34;4897453;29;20799;-73
2022/10/25 06:53:55;;;;;;;16.52;4.88;;;;;;;16.68;73.57;101457.22;4890853;28;20120;-73
2022/10/25 06:56:21;;;;;;;15.55;4.63;;;;;;;16.69;74.05;101464.25;4898084;29;20479;-74
2022/10/25 06:58:46;;;;;;;17.08;4.65;;;;;;;16.58;74.12;101461.63;4885568;29;20028;-73
2022/10/25 07:01:13;;;;;;;13.52;4.32;;;;;;;16.78;73.35;101461.59;4876459;28;20497;-72
2022/10/25 07:03:39;;;;;;;16.42;4.50;;;;;;;16.84;73.20;101466.84;4884281;29;20171;-73
2022/10/25 07:06:06;;;;;;;14.52;4.90;;;;;;;16.74;73.79;101475.66;4882497;28;20044;-72
2022/10/25 07:08:33;;;;;;;19.63;5.38;;;;;;;16.71;73.54;101473.00;4897903;29;20058;-73
2022/10/25 07:10:59;;;;;;;16.50;5.40;;;;;;;16.89;73.60;101478.25;4883685;29;20749;-74
2022/10/25 07:13:24;;;;;;;17.20;6.07;;;;;;;16.81;73.14;101480.03;4877156;29;20103;-74
2022/10/25 07:15:49;;;;;;;13.60;5.70;;;;;;;16.89;73.64;101480.00;4890246;29;20236;-74
2022/10/25 07:18:16;;;;;;;15.07;5.85;;;;;;;16.98;73.18;101485.25;4893431;28;20377;-73
2022/10/25 07:20:45;;;;;;;15.52;5.78;;;;;;;16.95;73.03;101488.78;4896257;29;20039;-73
2022/10/25 07:23:11;;;;;;;11.48;5.55;;;;;;;16.62;73.55;101483.56;4906088;29;20035;-73
2022/10/25 07:25:36;;;;;;;14.73;5.65;;;;;;;16.87;73.01;101490.53;4891259;28;20107;-73
2022/10/25 07:28:02;;;;;;;14.57;5.75;;;;;;;16.95;72.46;101486.13;4899663;29;20099;-74
2022/10/25 07:30:27;;;;;;;13.38;5.57;;;;;;;16.92;72.65;101483.50;4896763;28;20086;-74
2022/10/25 07:32:52;;;;;;;11.90;5.30;;;;;;;16.53;74.29;101502.84;4897330;29;20027;-73
2022/10/25 07:35:18;;;;;;;16.80;5.50;;;;;;;16.88;72.56;101494.94;4890119;28;20119;-74
2022/10/25 07:37:43;;;;;;;13.30;4.95;;;;;;;16.82;72.46;101497.59;4900648;29;20028;-72
2022/10/25 07:40:09;;;;;;;8.13;4.20;;;;;;;17.02;72.53;101495.75;4901227;29;20025;-73
2022/10/25 07:42:34;;;;;;;10.65;4.18;;;;;;;16.93;72.99;101510.72;4894371;29;20492;-73
2022/10/25 07:44:59;;;;;;;13.27;3.97;;;;;;;17.13;72.48;101511.53;4899460;29;20012;-74
2022/10/25 07:47:25;;;;;;;9.10;3.63;;;;;;;16.98;72.18;101504.56;4890030;28;20426;-73
2022/10/25 07:49:50;;;;;;;8.10;3.28;;;;;;;17.26;71.53;101505.31;4895723;29;20020;-72
2022/10/25 07:52:15;;;;;;;8.80;3.47;;;;;;;17.36;71.17;101504.41;4896943;29;20083;-73
2022/10/25 07:54:41;;;;;;;9.13;3.40;;;;;;;17.16;71.34;101508.00;4891005;29;20040;-73
2022/10/25 07:57:06;;;;;;;9.02;3.20;;;;;;;17.26;71.45;101517.66;4893908;29;20072;-73
2022/10/25 07:59:32;;;;;;;8.38;3.58;;;;;;;17.42;71.07;101508.78;4889045;29;20650;-74
2022/10/25 08:01:57;;;;;;;14.07;3.58;;;;;;;17.42;71.07;101511.41;4894383;29;20059;-72
2022/10/25 08:04:23;;;;;;;9.80;3.60;;;;;;;17.40;71.10;101513.19;4894655;29;20159;-73
2022/10/25 08:06:48;;;;;;;10.60;3.70;;;;;;;17.25;70.54;101519.41;4902259;28;20076;-73
2022/10/25 08:09:13;;;;;;;9.45;3.80;;;;;;;17.39;70.11;101530.75;4889075;29;20028;-72
2022/10/25 08:11:39;;;;;;;11.20;3.85;;;;;;;17.45;69.87;101525.44;4893034;29;20060;-74
2022/10/25 08:14:04;;;;;;;8.25;3.53;;;;;;;17.43;70.03;101529.00;4895485;29;20285;-73
2022/10/25 08:16:29;;;;;;;10.90;3.60;;;;;;;17.42;69.97;101537.78;4894165;29;20116;-74
2022/10/25 08:18:55;;;;;;;10.32;3.85;;;;;;;17.43;70.24;101545.69;4886917;28;20074;-74
2022/10/25 08:21:20;;;;;;;9.80;4.30;;;;;;;17.44;70.44;101536.88;4888012;29;20032;-73
2022/10/25 08:23:45;;;;;;;9.88;4.40;;;;;;;17.64;70.50;101539.47;4888659;28;20048;-74
2022/10/25 08:26:11;;;;;;;9.40;4.90;;;;;;;17.68;69.96;101535.94;4898625;29;20034;-74
2022/10/25 08:28:36;;;;;;;12.55;5.22;;;;;;;17.53;69.79;101535.97;4898632;29;20456;-74
2022/10/25 08:31:03;;;;;;;11.13;4.55;;;;;;;17.88;69.01;101540.19;4886823;29;20047;-74
2022/10/25 08:33:29;;;;;;;10.85;4.80;;;;;;;17.96;69.00;101546.31;4892038;29;20040;-74
2022/10/25 08:35:54;;;;;;;10.00;5.30;;;;;;;17.94;69.18;101548.06;4893866;28;20036;-74
2022/10/25 08:38:19;;;;;;;11.88;5.72;;;;;;;17.69;69.33;101545.56;4891186;29;20524;-73
2022/10/25 08:41:13;;;;;;;12.65;5.60;;;;;;;17.91;69.22;101554.28;4893516;29;20036;-73
2022/10/25 08:44:21;;;;;;;12.83;6.43;;;;;;;17.80;69.28;101545.53;4890952;29;20071;-72
2022/10/25 08:47:16;;;;;;;11.75;6.15;;;;;;;17.96;69.00;101556.88;4889496;29;20454;-73
2022/10/25 08:49:53;;;;;;;10.57;6.50;;;;;;;18.08;68.61;101552.41;4890419;29;20625;-74
2022/10/25 08:52:25;;;;;;;12.38;7.57;;;;;;;17.66;69.41;101556.16;4889996;29;20335;-73
2022/10/25 08:54:50;;;;;;;14.23;8.10;;;;;;;17.74;69.53;101556.13;4906273;28;20860;-72
2022/10/25 08:57:23;;;;;;;13.68;8.23;;;;;;;18.09;69.19;101562.06;4902723;29;20430;-74
2022/10/25 09:00:22;;;;;;;14.65;9.10;;;;;;;18.12;68.57;101561.16;4905856;28;20073;-73
2022/10/25 09:02:51;;;;;;;17.10;9.20;;;;;;;18.33;67.93;101565.41;4886786;29;20527;-73
2022/10/25 09:05:40;;;;;;;16.08;9.30;;;;;;;18.47;68.02;101561.78;4905294;29;20024;-74
2022/10/25 09:08:36;;;;;;;14.60;9.93;;;;;;;18.20;67.67;101569.91;4888987;29;20047;-73
2022/10/25 09:11:23;;;;;;;15.20;9.93;;;;;;;18.44;67.62;101568.84;4890416;29;20071;-73
2022/10/25 09:13:55;;;;;;;13.98;9.68;;;;;;;18.39;66.92;101574.16;4891960;29;20042;-73
2022/10/25 09:16:30;;;;;;;16.70;10.00;;;;;;;18.33;67.59;101570.69;4894703;29;21379;-73
2022/10/25 09:18:56;;;;;;;13.52;9.48;;;;;;;18.36;67.52;101581.25;4889066;28;20144;-72
2022/10/25 09:21:48;;;;;;;15.10;9.88;;;;;;;18.17;67.29;101576.09;4887802;29;20277;-72
2022/10/25 09:24:32;;;;;;;16.23;9.77;;;;;;;18.27;67.55;101591.84;4888831;29;20330;-73
2022/10/25 09:27:00;;;;;;;15.60;9.23;;;;;;;18.30;67.41;101583.94;4894341;29;20119;-72
2022/10/25 09:29:40;;;;;;;14.75;9.38;;;;;;;18.22;67.72;101599.81;4882681;29;20492;-73
2022/10/25 09:32:39;;;;;;;14.25;9.63;;;;;;;18.36;67.23;101597.09;4892516;29;20441;-74
2022/10/25 09:35:14;;;;;;;13.93;9.57;;;;;;;18.29;67.43;101596.25;4897709;29;20595;-73
2022/10/25 09:37:44;;;;;;;15.70;9.88;;;;;;;18.23;67.61;101601.56;4898623;28;20103;-72
2022/10/25 09:40:15;;;;;;;16.92;10.07;;;;;;;18.19;67.44;101603.34;4891342;29;20365;-72
2022/10/25 09:42:50;;;;;;;17.27;10.48;;;;;;;18.31;67.20;101601.50;4891701;29;20090;-74
2022/10/25 09:45:23;;;;;;;17.55;10.73;;;;;;;18.24;67.36;101612.09;4887832;29;20122;-74
2022/10/25 09:48:07;;;;;;;18.77;11.20;;;;;;;18.42;67.76;101621.66;4888838;29;20052;-73
2022/10/25 09:50:45;;;;;;;19.30;11.27;;;;;;;18.26;67.56;101606.81;4895630;29;20044;-73
2022/10/25 09:53:17;;;;;;;17.42;10.35;;;;;;;18.53;66.78;101611.91;4893398;29;20040;-74
2022/10/25 09:55:54;;;;;;;15.50;10.93;;;;;;;18.35;66.84;101616.44;4897170;29;20027;-73
2022/10/25 09:58:22;;;;;;;15.32;11.10;;;;;;;18.45;66.25;101613.72;4902698;29;20043;-74
2022/10/25 10:00:53;;;;;;;17.98;11.45;;;;;;;18.51;66.08;101610.16;4894744;29;20020;-74
2022/10/25 10:03:19;;;;;;;18.33;11.25;;;;;;;18.47;66.50;101616.38;4890520;28;20399;-73
2022/10/25 10:05:55;;;;;;;19.90;11.30;;;;;;;18.59;66.60;101617.19;4896612;29;20032;-73
2022/10/25 10:08:21;;;;;;;19.98;11.63;;;;;;;18.37;67.79;101617.28;4895000;28;20044;-73
2022/10/25 10:10:49;;;;;;;16.58;11.50;;;;;;;18.34;67.53;101614.69;4898681;29;20739;-74
2022/10/25 10:13:39;;;;;;;18.90;11.07;;;;;;;18.79;66.46;101631.97;4896918;29;20531;-74
2022/10/25 10:16:11;;;;;;;19.27;10.63;;;;;;;18.72;65.65;101628.53;4894796;29;20036;-73
2022/10/25 10:18:36;;;;;;;19.65;10.40;;;;;;;18.85;65.67;101635.44;4896757;29;20028;-73
2022/10/25 10:21:08;;;;;;;15.73;9.93;;;;;;;18.88;65.36;101638.06;4892613;28;20047;-73
2022/10/25 10:23:47;;;;;;;16.75;9.52;;;;;;;18.86;65.23;101629.28;4895184;29;20131;-72
2022/10/25 10:26:22;;;;;;;14.13;9.02;;;;;;;19.04;65.15;101629.09;4891686;29;20072;-74
2022/10/25 10:28:50;;;;;;;14.80;9.23;;;;;;;18.72;65.12;101628.53;4884055;29;20028;-73
2022/10/25 10:31:17;;;;;;;13.73;8.88;;;;;;;18.96;65.46;101630.09;4890939;29;20107;-74
2022/10/25 10:33:50;;;;;;;13.80;8.82;;;;;;;19.09;65.17;101639.63;4887999;29;20035;-73
2022/10/25 10:36:24;;;;;;;17.15;8.98;;;;;;;18.98;65.57;101637.09;4887653;29;21012;-73
2022/10/25 10:38:49;;;;;;;;;;;;;;;19.19;65.29;101636.03;4886019;28;20294;-73
2022/10/25 10:41:25;;;;;;;14.93;8.40;;;;;;;19.48;63.98;101629.56;4891921;29;19923;-74
2022/10/25 10:44:07;;;;;;;14.80;8.82;;;;;;;19.07;64.69;101637.91;4883907;28;20547;-75
2022/10/25 10:46:32;;;;;;;15.77;9.05;;;;;;;19.26;64.52;101632.44;4893252;29;21213;-74
2022/10/25 10:49:01;;;;;;;16.45;8.15;;;;;;;19.28;64.80;101635.91;4877351;29;20140;-72
2022/10/25 10:51:42;;;;;;;14.68;7.50;;;;;;;19.66;63.87;101632.88;4877450;29;20392;-72
2022/10/25 10:54:39;;;;;;;12.80;7.47;;;;;;;19.55;64.48;101625.97;4896851;29;20060;-73
2022/10/25 10:57:20;;;;;;;15.38;7.80;;;;;;;19.35;65.37;101634.97;4895191;29;20850;-73
2022/10/25 10:59:54;;;;;;;15.48;8.00;;;;;;;19.47;65.11;101625.16;4893019;29;20036;-74
2022/10/25 11:02:31;;;;;;;;;;;;;;;19.34;65.15;101632.31;4897326;28;20047;-74
2022/10/25 11:04:57;;;;;;;12.65;7.60;;;;;;;19.17;66.03;101639.56;4897190;29;20001;-72
2022/10/25 11:07:32;;;;;;;19.15;8.00;;;;;;;19.37;64.94;101630.53;4884926;28;20478;-73
2022/10/25 11:10:34;;;;;;;11.73;6.70;;;;;;;19.27;65.36;101628.03;4882243;29;20572;-74
2022/10/25 11:13:14;;;;;;;12.05;5.80;;;;;;;19.59;64.37;101625.91;4873768;29;20036;-73
2022/10/25 11:15:58;;;;;;;12.52;5.30;;;;;;;19.14;64.68;101632.56;4899521;29;20135;-73
2022/10/25 11:18:39;;;;;;;11.07;4.95;;;;;;;19.40;64.17;101637.56;4893716;29;20353;-74
2022/10/25 11:21:28;;;;;;;9.63;4.72;;;;;;;19.55;63.92;101633.91;4895757;28;20079;-74
2022/10/25 11:24:21;;;;;;;13.55;5.03;;;;;;;19.62;64.13;101633.81;4895480;29;20040;-74
2022/10/25 11:26:55;;;;;;;11.38;4.28;;;;;;;19.74;62.99;101638.09;4885903;29;20227;-73
2022/10/25 11:30:08;;;;;;;16.10;4.78;;;;;;;19.66;62.97;101635.53;4884014;29;20051;-72
2022/10/25 11:32:51;;;;;;;12.57;4.25;;;;;;;19.96;62.14;101625.44;4895681;28;20895;-73
2022/10/25 11:35:28;;;;;;;13.63;4.83;;;;;;;19.77;61.91;101628.31;4897349;29;20042;-73